createdAt,value
2017-07-20T06:56:32.555Z,66.40
2017-07-20T06:59:02.111Z,65.40
2017-07-20T07:01:31.349Z,65.90
2017-07-20T07:04:01.119Z,63.60
2017-07-20T07:06:30.351Z,64.90
2017-07-20T07:09:00.563Z,63.10
2017-07-20T07:11:29.799Z,63.50
2017-07-20T07:13:59.829Z,63.10
2017-07-20T07:16:29.106Z,63.10
2017-07-20T07:18:59.286Z,64.80
2017-07-20T07:21:28.503Z,64.80
2017-07-20T07:23:58.035Z,64.90
2017-07-20T07:26:27.330Z,65.10
2017-07-20T07:28:57.330Z,64.40
2017-07-20T07:31:27.083Z,63.80
2017-07-20T07:33:56.351Z,64.60
2017-07-20T07:36:25.641Z,64.30
2017-07-20T07:38:54.903Z,63.70
2017-07-20T07:41:24.117Z,63.40
2017-07-20T07:43:53.660Z,64.40
2017-07-20T07:46:23.739Z,64.20
2017-07-20T07:48:52.983Z,64.10
2017-07-20T07:51:22.429Z,63.80
2017-07-20T07:53:51.651Z,63.40
2017-07-20T07:56:20.991Z,59.90
2017-07-20T07:58:50.230Z,60.80
2017-07-20T08:01:19.467Z,61.30
2017-07-20T08:03:48.698Z,61.30
2017-07-20T08:06:17.998Z,59.90
2017-07-20T08:08:47.260Z,55.10
2017-07-20T08:11:16.474Z,57.40
2017-07-20T08:13:45.714Z,59.20
2017-07-20T08:16:14.972Z,58.70
2017-07-20T08:18:44.202Z,59.30
2017-07-20T08:21:13.419Z,57.80
2017-07-20T08:23:42.665Z,59.20
2017-07-20T08:26:13.049Z,58.40
2017-07-20T08:28:42.302Z,59.20
2017-07-20T08:31:11.562Z,59.50
2017-07-20T08:33:40.786Z,57.80
2017-07-20T08:36:10.844Z,56.90
2017-07-20T08:38:40.113Z,57.20
2017-07-20T08:41:09.353Z,55.40
2017-07-20T08:43:38.627Z,55.80
2017-07-20T08:46:07.883Z,56.60
2017-07-20T08:48:37.135Z,57.00
2017-07-20T08:51:06.454Z,58.20
2017-07-20T08:53:35.683Z,58.00
2017-07-20T08:56:04.963Z,58.30
2017-07-20T08:58:34.198Z,58.30
2017-07-20T09:01:03.385Z,58.50
2017-07-20T09:03:32.603Z,58.50
2017-07-20T09:06:03.087Z,57.00
2017-07-20T09:08:32.311Z,57.00
2017-07-20T09:11:01.545Z,56.80
2017-07-20T09:13:30.818Z,56.30
2017-07-20T09:16:00.047Z,55.20
2017-07-20T09:18:29.470Z,56.70
2017-07-20T09:20:58.743Z,52.50
2017-07-20T09:23:28.005Z,54.20
2017-07-20T09:25:57.262Z,55.30
2017-07-20T09:28:26.498Z,55.50
2017-07-20T09:30:55.923Z,55.10
2017-07-20T09:33:26.886Z,52.10
2017-07-20T09:35:56.077Z,52.10
2017-07-20T09:38:26.374Z,55.20
2017-07-20T09:40:55.913Z,55.20
2017-07-20T09:43:25.560Z,53.50
2017-07-20T09:45:55.446Z,53.30
2017-07-20T09:48:24.652Z,54.10
2017-07-20T09:50:53.874Z,53.90
2017-07-20T09:53:23.126Z,53.70
2017-07-20T09:55:54.368Z,53.50
2017-07-20T09:58:23.622Z,53.10
2017-07-20T10:00:53.330Z,53.90
2017-07-20T10:03:22.566Z,52.40
2017-07-20T10:05:52.607Z,53.80
2017-07-20T10:08:21.843Z,53.80
2017-07-20T10:10:51.110Z,55.30
2017-07-20T10:13:20.754Z,54.20
2017-07-20T10:15:50.038Z,53.40
2017-07-20T10:18:19.295Z,53.60
2017-07-20T10:20:48.534Z,53.50
2017-07-20T10:23:17.800Z,50.90
2017-07-20T10:25:47.030Z,51.80
2017-07-20T10:28:16.289Z,53.00
2017-07-20T10:30:45.593Z,50.30
2017-07-20T10:33:14.838Z,50.50
2017-07-20T10:35:44.042Z,50.90
2017-07-20T10:38:13.326Z,50.80
2017-07-20T10:40:42.674Z,52.40
2017-07-20T10:43:12.794Z,52.80
2017-07-20T10:45:42.271Z,52.80
2017-07-20T10:48:13.392Z,51.20
2017-07-20T10:50:42.649Z,51.90
2017-07-20T10:53:12.703Z,52.10
2017-07-20T10:55:41.899Z,52.00
2017-07-20T10:58:11.126Z,52.60
2017-07-20T11:00:40.601Z,52.70
2017-07-20T11:03:09.829Z,53.40
2017-07-20T11:05:39.109Z,53.40
2017-07-20T11:08:08.552Z,53.70
2017-07-20T11:10:37.821Z,53.80
2017-07-20T11:13:07.114Z,52.90
2017-07-20T11:15:36.714Z,53.90
2017-07-20T11:18:05.945Z,53.80
2017-07-20T11:20:35.240Z,53.90
2017-07-20T11:23:04.484Z,53.20
2017-07-20T11:25:33.722Z,53.70
2017-07-20T11:28:02.978Z,53.80
2017-07-20T11:30:32.204Z,53.80
2017-07-20T11:33:01.453Z,52.50
2017-07-20T11:35:30.718Z,52.40
2017-07-20T11:37:59.973Z,53.50
2017-07-20T11:40:29.253Z,54.10
2017-07-20T11:42:59.277Z,54.90
2017-07-20T11:45:28.523Z,54.30
2017-07-20T11:47:58.306Z,54.60
2017-07-20T11:50:27.557Z,55.00
2017-07-20T11:52:56.866Z,55.60
2017-07-20T11:55:26.134Z,55.00
2017-07-20T11:57:55.400Z,56.50
2017-07-20T12:00:24.661Z,56.70
2017-07-20T12:02:53.854Z,57.10
2017-07-20T12:05:23.358Z,57.00
2017-07-20T12:07:52.690Z,57.20
2017-07-20T12:10:22.989Z,56.90
2017-07-20T12:12:52.222Z,57.00
2017-07-20T12:15:21.466Z,58.70
2017-07-20T12:17:51.342Z,58.30
2017-07-20T12:20:21.426Z,59.30
2017-07-20T12:22:51.442Z,59.10
2017-07-20T12:25:20.692Z,58.60
2017-07-20T12:27:49.994Z,58.80
2017-07-20T12:30:19.235Z,58.60
2017-07-20T12:32:48.505Z,58.90
2017-07-20T12:35:18.241Z,58.60
2017-07-20T12:37:48.011Z,60.20
2017-07-20T12:40:17.279Z,60.90
2017-07-20T12:42:46.536Z,60.00
2017-07-20T12:45:15.818Z,60.50
2017-07-20T12:47:45.043Z,60.30
2017-07-20T12:50:15.028Z,60.20
2017-07-20T12:52:44.350Z,59.90
2017-07-20T12:55:13.619Z,60.10
2017-07-20T12:57:42.852Z,61.50
2017-07-20T13:00:12.174Z,61.60
2017-07-20T13:02:42.218Z,63.10
2017-07-20T13:05:11.463Z,63.00
2017-07-20T13:07:44.060Z,64.10
2017-07-20T13:10:14.196Z,63.00
2017-07-20T13:12:43.439Z,62.80
2017-07-20T13:15:12.630Z,63.20
2017-07-20T13:17:41.890Z,62.90
2017-07-20T13:20:11.878Z,63.60
2017-07-20T13:22:41.089Z,63.00
2017-07-20T13:25:10.363Z,62.90
2017-07-20T13:27:39.609Z,63.30
2017-07-20T13:30:08.863Z,64.50
2017-07-20T13:32:38.204Z,65.20
2017-07-20T13:35:08.458Z,62.00
2017-07-20T13:37:37.830Z,59.50
2017-07-20T13:40:07.914Z,59.20
2017-07-20T13:42:38.422Z,59.10
2017-07-20T13:45:07.695Z,59.00
2017-07-20T13:47:36.950Z,59.50
2017-07-20T13:50:06.339Z,57.60
2017-07-20T13:52:35.598Z,57.50
2017-07-20T13:55:04.870Z,59.20
2017-07-20T13:57:34.962Z,60.20
2017-07-20T14:00:04.223Z,60.20
2017-07-20T14:02:33.479Z,57.70
2017-07-20T14:05:02.731Z,56.20
2017-07-20T14:07:32.675Z,55.30
2017-07-20T14:10:01.979Z,57.80
2017-07-20T14:12:31.266Z,58.00
2017-07-20T14:15:00.523Z,58.50
2017-07-20T14:17:29.819Z,54.50
2017-07-20T14:19:59.148Z,47.30
2017-07-20T14:22:28.949Z,46.40
2017-07-20T14:24:58.261Z,46.40
2017-07-20T14:27:27.586Z,40.20
2017-07-20T14:29:56.863Z,43.60
2017-07-20T14:32:26.133Z,39.20
2017-07-20T14:34:55.361Z,36.50
2017-07-20T14:37:24.795Z,47.20
2017-07-20T14:39:54.034Z,35.70
2017-07-20T14:42:23.274Z,32.20
2017-07-20T14:44:52.478Z,39.80
2017-07-20T14:47:22.502Z,39.70
2017-07-20T14:49:51.754Z,40.40
2017-07-20T14:52:21.076Z,41.70
2017-07-20T14:54:51.805Z,43.90
2017-07-20T14:57:21.019Z,44.80
2017-07-20T14:59:50.285Z,45.60
2017-07-20T15:02:19.563Z,46.90
2017-07-20T15:04:48.785Z,48.20
2017-07-20T15:07:18.835Z,48.10
2017-07-20T15:09:48.337Z,48.00
2017-07-20T15:12:17.558Z,47.40
2017-07-20T15:14:46.849Z,47.70
2017-07-20T15:17:16.091Z,47.90
2017-07-20T15:19:46.143Z,49.00
2017-07-20T15:22:15.379Z,49.00
2017-07-20T15:24:44.613Z,49.10
2017-07-20T15:27:13.873Z,48.90
2017-07-20T15:29:43.102Z,50.40
2017-07-20T15:32:12.355Z,50.30
2017-07-20T15:34:41.667Z,52.60
2017-07-20T15:37:10.937Z,52.70
2017-07-20T15:39:40.162Z,52.50
2017-07-20T15:42:10.822Z,52.90
2017-07-20T15:44:40.053Z,53.40
2017-07-20T15:47:09.286Z,53.10
2017-07-20T15:49:38.571Z,52.90
2017-07-20T15:52:07.799Z,52.90
2017-07-20T15:54:37.819Z,52.30
2017-07-20T15:57:07.050Z,53.00
2017-07-20T15:59:37.126Z,52.60
2017-07-20T16:02:06.610Z,53.10
2017-07-20T16:04:36.842Z,53.00
2017-07-20T16:07:06.087Z,52.60
2017-07-20T16:09:35.321Z,52.70
2017-07-20T16:12:04.556Z,53.00
2017-07-20T16:14:34.139Z,52.50
2017-07-20T16:17:03.448Z,51.40
2017-07-20T16:19:32.758Z,51.50
2017-07-20T16:22:01.978Z,52.10
2017-07-20T16:24:31.966Z,54.10
2017-07-20T16:27:01.179Z,54.20
2017-07-20T16:29:30.418Z,53.80
2017-07-20T16:32:00.073Z,52.90
2017-07-20T16:34:29.330Z,52.60
2017-07-20T16:36:58.582Z,51.70
2017-07-20T16:39:27.946Z,51.90
2017-07-20T16:41:57.234Z,51.70
2017-07-20T16:44:26.527Z,52.90
2017-07-20T16:46:55.746Z,53.20
2017-07-20T16:49:25.071Z,54.10
2017-07-20T16:51:54.776Z,53.80
2017-07-20T16:54:25.071Z,53.60
2017-07-20T16:56:54.784Z,53.10
2017-07-20T16:59:24.106Z,53.20
2017-07-20T17:01:53.874Z,53.40
2017-07-20T17:04:24.063Z,53.40
2017-07-20T17:06:53.285Z,53.40
2017-07-20T17:09:23.050Z,54.20
2017-07-20T17:11:52.298Z,53.00
2017-07-20T17:14:21.583Z,52.40
2017-07-20T17:16:50.884Z,52.40
2017-07-20T17:19:20.879Z,46.90
2017-07-20T17:21:50.122Z,46.80
2017-07-20T17:24:20.282Z,47.50
2017-07-20T17:26:50.163Z,50.10
2017-07-20T17:29:19.666Z,51.00
2017-07-20T17:31:49.168Z,52.10
2017-07-20T20:09:57.378Z,51.90
2017-07-20T20:12:27.835Z,52.60
2017-07-20T20:14:57.183Z,52.80
2017-07-20T20:17:26.613Z,53.20
2017-07-20T20:19:56.205Z,53.30
2017-07-20T20:22:25.679Z,52.80
2017-07-20T20:24:55.774Z,52.60
2017-07-20T20:27:25.026Z,52.60
2017-07-20T20:29:54.255Z,52.70
2017-07-20T20:32:23.715Z,53.50
2017-07-20T20:34:53.286Z,53.90
2017-07-20T20:37:23.543Z,53.70
2017-07-20T20:39:52.840Z,53.60
2017-07-20T20:42:22.150Z,54.00
2017-07-20T20:44:51.403Z,54.40
2017-07-20T20:47:20.649Z,53.70
2017-07-20T20:49:49.926Z,53.70
2017-07-20T20:52:19.202Z,53.70
2017-07-20T20:54:48.465Z,53.80
2017-07-20T20:57:17.811Z,54.30
2017-07-20T20:59:47.215Z,54.10
2017-07-20T21:02:16.736Z,54.30
2017-07-20T21:04:47.025Z,54.00
2017-07-20T21:07:16.500Z,54.00
2017-07-20T21:09:45.762Z,54.10
2017-07-20T21:12:15.009Z,54.70
2017-07-20T21:14:45.891Z,54.20
2017-07-20T21:17:15.182Z,54.30
2017-07-20T21:19:44.943Z,54.00
2017-07-20T21:22:15.152Z,54.30
2017-07-20T21:24:44.383Z,54.30
2017-07-20T21:27:13.651Z,54.50
2017-07-20T21:29:42.886Z,54.50
2017-07-20T21:32:14.003Z,54.60
2017-07-20T21:34:43.267Z,55.60
2017-07-20T21:37:12.521Z,55.00
2017-07-20T21:39:41.727Z,54.60
2017-07-20T21:42:12.944Z,54.70
2017-07-20T21:44:42.231Z,54.70
2017-07-20T21:47:11.466Z,54.90
2017-07-20T21:49:40.758Z,54.90
2017-07-20T21:52:10.022Z,55.00
2017-07-20T21:54:39.262Z,55.10
2017-07-20T21:57:08.530Z,55.50
2017-07-20T21:59:37.823Z,55.10
2017-07-20T22:02:07.066Z,54.80
2017-07-20T22:04:36.355Z,55.90
2017-07-20T22:07:05.567Z,55.60
2017-07-20T22:09:34.798Z,55.30
2017-07-20T22:12:04.026Z,55.20
2017-07-20T22:14:33.302Z,55.70
2017-07-20T22:17:02.558Z,55.80
2017-07-20T22:19:31.805Z,55.50
2017-07-20T22:22:01.069Z,55.40
2017-07-20T22:24:30.267Z,55.40
2017-07-20T22:26:59.518Z,55.80
2017-07-20T22:29:28.771Z,56.00
2017-07-20T22:31:58.826Z,55.80
2017-07-20T22:34:28.078Z,56.40
2017-07-20T22:36:57.278Z,56.80
2017-07-20T22:39:26.537Z,56.80
2017-07-20T22:41:55.778Z,57.70
2017-07-20T22:44:25.054Z,57.50
2017-07-20T22:46:54.289Z,57.80
2017-07-20T22:49:23.563Z,58.10
2017-07-20T22:51:52.818Z,57.60
2017-07-20T22:54:22.360Z,57.20
2017-07-20T22:56:51.587Z,56.80
2017-07-20T22:59:21.101Z,56.40
2017-07-20T23:01:50.327Z,56.40
2017-07-20T23:04:19.606Z,56.70
2017-07-20T23:06:49.610Z,56.70
2017-07-20T23:09:19.623Z,56.20
2017-07-20T23:11:48.858Z,56.70
2017-07-20T23:14:19.077Z,56.70
2017-07-20T23:16:48.311Z,57.40
2017-07-20T23:19:17.556Z,57.80
2017-07-20T23:21:46.795Z,58.60
2017-07-20T23:24:16.047Z,59.60
2017-07-20T23:26:45.326Z,59.20
2017-07-20T23:29:14.942Z,58.90
2017-07-20T23:31:44.312Z,58.70
2017-07-20T23:34:13.573Z,58.50
2017-07-20T23:36:42.818Z,58.30
2017-07-20T23:39:12.037Z,57.90
2017-07-20T23:41:41.282Z,58.40
2017-07-20T23:44:11.026Z,58.90
2017-07-20T23:46:40.284Z,58.90
2017-07-20T23:49:09.511Z,58.30
2017-07-20T23:51:38.749Z,58.10
2017-07-20T23:54:07.971Z,58.50
2017-07-20T23:56:37.207Z,58.00
2017-07-20T23:59:07.046Z,58.50
